sensor_id;sensor_type;location;lat;lon;timestamp;temperature;humidity
14378;DHT22;7272;53.668;9.578;2023-04-26T00:02:34;6.10;99.90
14378;DHT22;7272;53.668;9.578;2023-04-26T00:05:36;6.20;99.90
14378;DHT22;7272;53.668;9.578;2023-04-26T00:08:38;6.20;99.90
14378;DHT22;7272;53.668;9.578;2023-04-26T00:11:40;6.20;99.90
14378;DHT22;7272;53.668;9.578;2023-04-26T00:14:41;6.20;99.90
14378;DHT22;7272;53.668;9.578;2023-04-26T00:17:42;6.10;99.90
14378;DHT22;7272;53.668;9.578;2023-04-26T00:20:44;6.00;99.90
14378;DHT22;7272;53.668;9.578;2023-04-26T00:23:45;6.00;99.90
14378;DHT22;7272;53.668;9.578;2023-04-26T00:26:46;5.90;99.90
14378;DHT22;7272;53.668;9.578;2023-04-26T00:29:48;5.90;99.90
14378;DHT22;7272;53.668;9.578;2023-04-26T00:32:49;5.90;99.90
14378;DHT22;7272;53.668;9.578;2023-04-26T00:35:51;5.90;99.90
14378;DHT22;7272;53.668;9.578;2023-04-26T00:38:52;5.90;99.90
14378;DHT22;7272;53.668;9.578;2023-04-26T00:41:53;5.90;99.90
14378;DHT22;7272;53.668;9.578;2023-04-26T00:44:55;5.90;99.90
14378;DHT22;7272;53.668;9.578;2023-04-26T00:47:59;5.80;99.90
14378;DHT22;7272;53.668;9.578;2023-04-26T00:51:02;5.80;99.90
14378;DHT22;7272;53.668;9.578;2023-04-26T00:54:04;5.80;99.90
14378;DHT22;7272;53.668;9.578;2023-04-26T00:57:06;5.80;99.90
14378;DHT22;7272;53.668;9.578;2023-04-26T01:00:10;5.80;99.90
14378;DHT22;7272;53.668;9.578;2023-04-26T01:03:12;5.80;99.90
14378;DHT22;7272;53.668;9.578;2023-04-26T01:06:14;5.80;99.90
14378;DHT22;7272;53.668;9.578;2023-04-26T01:09:17;5.90;99.90
14378;DHT22;7272;53.668;9.578;2023-04-26T01:12:18;5.90;99.90
14378;DHT22;7272;53.668;9.578;2023-04-26T01:15:20;5.90;99.90
14378;DHT22;7272;53.668;9.578;2023-04-26T01:18:23;5.90;99.90
14378;DHT22;7272;53.668;9.578;2023-04-26T01:21:25;5.80;99.90
14378;DHT22;7272;53.668;9.578;2023-04-26T01:24:30;5.80;99.90
14378;DHT22;7272;53.668;9.578;2023-04-26T01:27:32;5.80;99.90
14378;DHT22;7272;53.668;9.578;2023-04-26T01:30:33;5.80;99.90
14378;DHT22;7272;53.668;9.578;2023-04-26T01:33:37;5.90;99.90
14378;DHT22;7272;53.668;9.578;2023-04-26T01:36:38;5.90;99.90
14378;DHT22;7272;53.668;9.578;2023-04-26T01:39:40;5.90;99.90
14378;DHT22;7272;53.668;9.578;2023-04-26T01:42:41;5.90;99.90
14378;DHT22;7272;53.668;9.578;2023-04-26T01:45:45;5.90;99.90
14378;DHT22;7272;53.668;9.578;2023-04-26T01:49:05;5.90;99.90
14378;DHT22;7272;53.668;9.578;2023-04-26T01:52:06;6.00;99.90
14378;DHT22;7272;53.668;9.578;2023-04-26T01:55:08;6.00;99.90
14378;DHT22;7272;53.668;9.578;2023-04-26T01:58:10;5.90;99.90
14378;DHT22;7272;53.668;9.578;2023-04-26T02:01:11;5.90;99.90
14378;DHT22;7272;53.668;9.578;2023-04-26T02:04:12;5.80;99.90
14378;DHT22;7272;53.668;9.578;2023-04-26T02:07:13;5.80;99.90
14378;DHT22;7272;53.668;9.578;2023-04-26T02:10:20;5.80;99.90
14378;DHT22;7272;53.668;9.578;2023-04-26T02:13:21;5.70;99.90
14378;DHT22;7272;53.668;9.578;2023-04-26T02:16:23;5.70;99.90
14378;DHT22;7272;53.668;9.578;2023-04-26T02:19:25;5.70;99.90
14378;DHT22;7272;53.668;9.578;2023-04-26T02:22:26;5.60;99.90
14378;DHT22;7272;53.668;9.578;2023-04-26T02:25:28;5.70;99.90
14378;DHT22;7272;53.668;9.578;2023-04-26T02:28:29;5.70;99.90
14378;DHT22;7272;53.668;9.578;2023-04-26T02:31:31;5.70;99.90
14378;DHT22;7272;53.668;9.578;2023-04-26T02:34:32;5.70;99.90
14378;DHT22;7272;53.668;9.578;2023-04-26T02:37:33;5.70;99.90
14378;DHT22;7272;53.668;9.578;2023-04-26T02:40:35;5.60;99.90
14378;DHT22;7272;53.668;9.578;2023-04-26T02:43:37;5.70;99.90
14378;DHT22;7272;53.668;9.578;2023-04-26T02:46:38;5.60;99.90
14378;DHT22;7272;53.668;9.578;2023-04-26T02:49:39;5.50;99.90
14378;DHT22;7272;53.668;9.578;2023-04-26T02:52:41;5.50;99.90
14378;DHT22;7272;53.668;9.578;2023-04-26T02:55:42;5.50;99.90
14378;DHT22;7272;53.668;9.578;2023-04-26T02:58:44;5.40;99.90
14378;DHT22;7272;53.668;9.578;2023-04-26T03:01:46;5.40;99.90
14378;DHT22;7272;53.668;9.578;2023-04-26T03:04:47;5.40;99.90
14378;DHT22;7272;53.668;9.578;2023-04-26T03:07:49;5.40;99.90
14378;DHT22;7272;53.668;9.578;2023-04-26T03:10:50;5.40;99.90
14378;DHT22;7272;53.668;9.578;2023-04-26T03:13:52;5.40;99.90
14378;DHT22;7272;53.668;9.578;2023-04-26T03:16:53;5.40;99.90
14378;DHT22;7272;53.668;9.578;2023-04-26T03:19:54;5.40;99.90
14378;DHT22;7272;53.668;9.578;2023-04-26T03:22:56;5.40;99.90
14378;DHT22;7272;53.668;9.578;2023-04-26T03:25:58;5.40;99.90
14378;DHT22;7272;53.668;9.578;2023-04-26T03:28:59;5.40;99.90
14378;DHT22;7272;53.668;9.578;2023-04-26T03:32:00;5.50;99.90
14378;DHT22;7272;53.668;9.578;2023-04-26T03:35:01;5.50;99.90
14378;DHT22;7272;53.668;9.578;2023-04-26T03:38:04;5.50;99.90
14378;DHT22;7272;53.668;9.578;2023-04-26T03:41:06;5.50;99.90
14378;DHT22;7272;53.668;9.578;2023-04-26T03:44:07;5.60;99.90
14378;DHT22;7272;53.668;9.578;2023-04-26T03:47:08;5.50;99.90
14378;DHT22;7272;53.668;9.578;2023-04-26T03:50:10;5.50;99.90
14378;DHT22;7272;53.668;9.578;2023-04-26T03:53:12;5.50;99.90
14378;DHT22;7272;53.668;9.578;2023-04-26T03:56:13;5.50;99.90
14378;DHT22;7272;53.668;9.578;2023-04-26T03:59:15;5.50;99.90
14378;DHT22;7272;53.668;9.578;2023-04-26T04:02:16;5.50;99.90
14378;DHT22;7272;53.668;9.578;2023-04-26T04:05:18;5.50;99.90
14378;DHT22;7272;53.668;9.578;2023-04-26T04:08:19;5.50;99.90
14378;DHT22;7272;53.668;9.578;2023-04-26T04:11:21;5.50;99.90
14378;DHT22;7272;53.668;9.578;2023-04-26T04:14:22;5.50;99.90
14378;DHT22;7272;53.668;9.578;2023-04-26T04:17:23;5.50;99.90
14378;DHT22;7272;53.668;9.578;2023-04-26T04:20:25;5.50;99.90
14378;DHT22;7272;53.668;9.578;2023-04-26T04:23:28;5.50;99.90
14378;DHT22;7272;53.668;9.578;2023-04-26T04:26:30;5.50;99.90
14378;DHT22;7272;53.668;9.578;2023-04-26T04:29:34;5.50;99.90
14378;DHT22;7272;53.668;9.578;2023-04-26T04:32:35;5.50;99.90
14378;DHT22;7272;53.668;9.578;2023-04-26T04:35:40;5.60;99.90
14378;DHT22;7272;53.668;9.578;2023-04-26T04:38:41;5.60;99.90
14378;DHT22;7272;53.668;9.578;2023-04-26T04:41:44;5.70;99.90
14378;DHT22;7272;53.668;9.578;2023-04-26T04:44:48;5.80;99.90
14378;DHT22;7272;53.668;9.578;2023-04-26T04:47:53;5.80;99.90
14378;DHT22;7272;53.668;9.578;2023-04-26T04:50:54;5.90;99.90
14378;DHT22;7272;53.668;9.578;2023-04-26T04:53:56;5.90;99.90
14378;DHT22;7272;53.668;9.578;2023-04-26T04:56:58;5.90;99.90
14378;DHT22;7272;53.668;9.578;2023-04-26T05:00:01;5.90;99.90
14378;DHT22;7272;53.668;9.578;2023-04-26T05:03:13;5.90;99.90
14378;DHT22;7272;53.668;9.578;2023-04-26T05:06:14;5.90;99.90
14378;DHT22;7272;53.668;9.578;2023-04-26T05:09:16;5.90;99.90
14378;DHT22;7272;53.668;9.578;2023-04-26T05:12:18;6.00;99.90
14378;DHT22;7272;53.668;9.578;2023-04-26T05:15:20;6.20;99.90
14378;DHT22;7272;53.668;9.578;2023-04-26T05:18:21;6.30;99.90
14378;DHT22;7272;53.668;9.578;2023-04-26T05:21:23;6.40;99.90
14378;DHT22;7272;53.668;9.578;2023-04-26T05:24:25;6.30;99.90
14378;DHT22;7272;53.668;9.578;2023-04-26T05:27:30;6.20;99.90
14378;DHT22;7272;53.668;9.578;2023-04-26T05:30:48;6.20;99.90
14378;DHT22;7272;53.668;9.578;2023-04-26T05:34:12;6.30;99.90
14378;DHT22;7272;53.668;9.578;2023-04-26T05:37:14;6.40;99.90
14378;DHT22;7272;53.668;9.578;2023-04-26T05:40:17;6.40;99.90
14378;DHT22;7272;53.668;9.578;2023-04-26T05:43:19;6.50;99.90
14378;DHT22;7272;53.668;9.578;2023-04-26T05:46:20;6.50;99.90
14378;DHT22;7272;53.668;9.578;2023-04-26T05:49:21;6.60;99.90
14378;DHT22;7272;53.668;9.578;2023-04-26T05:52:23;6.60;99.90
14378;DHT22;7272;53.668;9.578;2023-04-26T05:55:25;6.70;99.90
14378;DHT22;7272;53.668;9.578;2023-04-26T05:58:28;6.60;99.90
14378;DHT22;7272;53.668;9.578;2023-04-26T06:01:29;6.70;99.90
14378;DHT22;7272;53.668;9.578;2023-04-26T06:04:31;6.70;99.90
14378;DHT22;7272;53.668;9.578;2023-04-26T06:07:40;6.70;99.90
14378;DHT22;7272;53.668;9.578;2023-04-26T06:10:41;6.70;99.90
14378;DHT22;7272;53.668;9.578;2023-04-26T06:13:43;6.80;99.90
14378;DHT22;7272;53.668;9.578;2023-04-26T06:16:44;6.90;99.90
14378;DHT22;7272;53.668;9.578;2023-04-26T06:19:46;6.90;99.90
14378;DHT22;7272;53.668;9.578;2023-04-26T06:22:47;6.90;99.90
14378;DHT22;7272;53.668;9.578;2023-04-26T06:25:49;7.00;99.90
14378;DHT22;7272;53.668;9.578;2023-04-26T06:28:50;7.10;99.90
14378;DHT22;7272;53.668;9.578;2023-04-26T06:31:52;7.20;99.90
14378;DHT22;7272;53.668;9.578;2023-04-26T06:34:55;7.30;99.90
14378;DHT22;7272;53.668;9.578;2023-04-26T06:37:56;7.30;99.90
14378;DHT22;7272;53.668;9.578;2023-04-26T06:40:57;7.40;99.90
14378;DHT22;7272;53.668;9.578;2023-04-26T06:43:59;7.60;99.90
14378;DHT22;7272;53.668;9.578;2023-04-26T06:47:05;7.50;99.90
14378;DHT22;7272;53.668;9.578;2023-04-26T06:50:09;7.40;99.90
14378;DHT22;7272;53.668;9.578;2023-04-26T06:53:11;7.40;99.90
14378;DHT22;7272;53.668;9.578;2023-04-26T06:56:12;7.50;99.90
14378;DHT22;7272;53.668;9.578;2023-04-26T06:59:14;7.60;99.90
14378;DHT22;7272;53.668;9.578;2023-04-26T07:02:15;7.70;99.90
14378;DHT22;7272;53.668;9.578;2023-04-26T07:05:16;7.90;99.90
14378;DHT22;7272;53.668;9.578;2023-04-26T07:08:17;8.00;99.90
14378;DHT22;7272;53.668;9.578;2023-04-26T07:11:19;8.00;99.90
14378;DHT22;7272;53.668;9.578;2023-04-26T07:14:21;8.20;99.90
14378;DHT22;7272;53.668;9.578;2023-04-26T07:17:23;8.40;99.90
14378;DHT22;7272;53.668;9.578;2023-04-26T07:20:24;8.60;99.90
14378;DHT22;7272;53.668;9.578;2023-04-26T07:23:25;8.50;99.90
14378;DHT22;7272;53.668;9.578;2023-04-26T07:26:27;7.50;99.90
14378;DHT22;7272;53.668;9.578;2023-04-26T07:29:28;6.80;99.90
14378;DHT22;7272;53.668;9.578;2023-04-26T07:32:29;6.40;99.90
14378;DHT22;7272;53.668;9.578;2023-04-26T07:35:31;6.30;99.90
14378;DHT22;7272;53.668;9.578;2023-04-26T07:38:34;6.30;99.90
14378;DHT22;7272;53.668;9.578;2023-04-26T07:41:36;6.50;99.90
14378;DHT22;7272;53.668;9.578;2023-04-26T07:44:37;6.80;99.90
14378;DHT22;7272;53.668;9.578;2023-04-26T07:47:39;7.10;99.90
14378;DHT22;7272;53.668;9.578;2023-04-26T07:50:40;7.30;99.90
14378;DHT22;7272;53.668;9.578;2023-04-26T07:53:41;7.50;99.90
14378;DHT22;7272;53.668;9.578;2023-04-26T07:56:42;7.70;99.90
14378;DHT22;7272;53.668;9.578;2023-04-26T07:59:44;7.80;99.90
14378;DHT22;7272;53.668;9.578;2023-04-26T08:02:45;7.90;99.90
14378;DHT22;7272;53.668;9.578;2023-04-26T08:05:47;8.30;99.90
14378;DHT22;7272;53.668;9.578;2023-04-26T08:08:49;8.70;99.90
14378;DHT22;7272;53.668;9.578;2023-04-26T08:11:50;8.90;99.90
14378;DHT22;7272;53.668;9.578;2023-04-26T08:14:52;9.10;99.90
14378;DHT22;7272;53.668;9.578;2023-04-26T08:17:54;9.40;99.90
14378;DHT22;7272;53.668;9.578;2023-04-26T08:20:55;9.70;99.90
14378;DHT22;7272;53.668;9.578;2023-04-26T08:23:56;9.90;99.90
14378;DHT22;7272;53.668;9.578;2023-04-26T08:26:57;9.80;99.90
14378;DHT22;7272;53.668;9.578;2023-04-26T08:29:59;9.80;99.90
14378;DHT22;7272;53.668;9.578;2023-04-26T08:33:00;9.80;99.90
14378;DHT22;7272;53.668;9.578;2023-04-26T08:36:02;9.90;99.90
14378;DHT22;7272;53.668;9.578;2023-04-26T08:39:03;10.10;99.90
14378;DHT22;7272;53.668;9.578;2023-04-26T08:42:12;10.30;99.90
14378;DHT22;7272;53.668;9.578;2023-04-26T08:45:15;10.40;99.90
14378;DHT22;7272;53.668;9.578;2023-04-26T08:48:17;10.20;99.90
14378;DHT22;7272;53.668;9.578;2023-04-26T08:51:20;10.10;99.90
14378;DHT22;7272;53.668;9.578;2023-04-26T08:54:22;9.60;99.90
14378;DHT22;7272;53.668;9.578;2023-04-26T08:57:25;9.40;99.90
14378;DHT22;7272;53.668;9.578;2023-04-26T09:00:27;9.20;99.90
14378;DHT22;7272;53.668;9.578;2023-04-26T09:03:29;9.50;99.90
14378;DHT22;7272;53.668;9.578;2023-04-26T09:06:31;9.80;99.90
14378;DHT22;7272;53.668;9.578;2023-04-26T09:09:34;10.30;99.90
14378;DHT22;7272;53.668;9.578;2023-04-26T09:12:37;10.70;99.90
14378;DHT22;7272;53.668;9.578;2023-04-26T09:15:39;11.00;99.90
14378;DHT22;7272;53.668;9.578;2023-04-26T09:18:47;11.30;99.90
14378;DHT22;7272;53.668;9.578;2023-04-26T09:21:50;11.10;99.90
14378;DHT22;7272;53.668;9.578;2023-04-26T09:24:51;10.40;99.90
14378;DHT22;7272;53.668;9.578;2023-04-26T09:27:52;9.90;99.90
14378;DHT22;7272;53.668;9.578;2023-04-26T09:30:54;9.50;99.90
14378;DHT22;7272;53.668;9.578;2023-04-26T09:33:59;9.10;99.90
14378;DHT22;7272;53.668;9.578;2023-04-26T09:37:00;9.00;99.90
14378;DHT22;7272;53.668;9.578;2023-04-26T09:40:02;9.30;99.90
14378;DHT22;7272;53.668;9.578;2023-04-26T09:43:09;9.60;99.90
14378;DHT22;7272;53.668;9.578;2023-04-26T09:46:21;9.90;99.90
14378;DHT22;7272;53.668;9.578;2023-04-26T09:49:22;10.40;99.90
14378;DHT22;7272;53.668;9.578;2023-04-26T09:52:23;10.80;99.90
14378;DHT22;7272;53.668;9.578;2023-04-26T09:55:26;11.30;99.90
14378;DHT22;7272;53.668;9.578;2023-04-26T09:58:27;11.40;99.90
14378;DHT22;7272;53.668;9.578;2023-04-26T10:01:29;11.70;99.90
14378;DHT22;7272;53.668;9.578;2023-04-26T10:04:30;11.90;99.90
14378;DHT22;7272;53.668;9.578;2023-04-26T10:07:32;12.10;99.90
14378;DHT22;7272;53.668;9.578;2023-04-26T10:10:34;12.50;99.90
14378;DHT22;7272;53.668;9.578;2023-04-26T10:13:36;11.60;99.90
14378;DHT22;7272;53.668;9.578;2023-04-26T10:16:38;10.50;99.90
14378;DHT22;7272;53.668;9.578;2023-04-26T10:19:42;9.80;99.90
14378;DHT22;7272;53.668;9.578;2023-04-26T10:22:45;9.40;99.90
14378;DHT22;7272;53.668;9.578;2023-04-26T10:25:47;9.40;99.90
14378;DHT22;7272;53.668;9.578;2023-04-26T10:28:54;9.50;99.90
14378;DHT22;7272;53.668;9.578;2023-04-26T10:32:07;9.80;99.90
14378;DHT22;7272;53.668;9.578;2023-04-26T10:35:11;10.20;99.90
14378;DHT22;7272;53.668;9.578;2023-04-26T10:38:12;10.20;99.90
14378;DHT22;7272;53.668;9.578;2023-04-26T10:41:31;9.90;99.90
14378;DHT22;7272;53.668;9.578;2023-04-26T10:44:37;9.80;99.90
14378;DHT22;7272;53.668;9.578;2023-04-26T10:47:39;9.70;99.90
14378;DHT22;7272;53.668;9.578;2023-04-26T10:51:08;9.90;99.90
14378;DHT22;7272;53.668;9.578;2023-04-26T10:54:11;10.30;99.90
14378;DHT22;7272;53.668;9.578;2023-04-26T10:57:13;10.80;99.90
14378;DHT22;7272;53.668;9.578;2023-04-26T11:00:22;11.00;99.90
14378;DHT22;7272;53.668;9.578;2023-04-26T11:03:25;11.00;99.90
14378;DHT22;7272;53.668;9.578;2023-04-26T11:06:48;10.30;99.90
14378;DHT22;7272;53.668;9.578;2023-04-26T11:09:51;9.80;99.90
14378;DHT22;7272;53.668;9.578;2023-04-26T11:12:59;9.60;99.90
14378;DHT22;7272;53.668;9.578;2023-04-26T11:16:02;10.10;99.90
14378;DHT22;7272;53.668;9.578;2023-04-26T11:19:04;11.00;99.90
14378;DHT22;7272;53.668;9.578;2023-04-26T11:22:07;11.20;99.90
14378;DHT22;7272;53.668;9.578;2023-04-26T11:25:08;11.40;99.90
14378;DHT22;7272;53.668;9.578;2023-04-26T11:28:12;11.80;99.90
14378;DHT22;7272;53.668;9.578;2023-04-26T11:31:14;11.90;99.90
14378;DHT22;7272;53.668;9.578;2023-04-26T11:34:15;11.50;99.90
14378;DHT22;7272;53.668;9.578;2023-04-26T11:37:17;10.80;99.90
14378;DHT22;7272;53.668;9.578;2023-04-26T11:40:18;10.40;99.90
14378;DHT22;7272;53.668;9.578;2023-04-26T11:43:20;10.40;99.90
14378;DHT22;7272;53.668;9.578;2023-04-26T11:46:21;10.30;99.90
14378;DHT22;7272;53.668;9.578;2023-04-26T11:49:24;10.40;99.90
14378;DHT22;7272;53.668;9.578;2023-04-26T11:52:25;10.80;99.90
14378;DHT22;7272;53.668;9.578;2023-04-26T11:55:28;10.60;99.90
14378;DHT22;7272;53.668;9.578;2023-04-26T11:58:30;11.00;99.90
14378;DHT22;7272;53.668;9.578;2023-04-26T12:01:31;11.00;99.90
14378;DHT22;7272;53.668;9.578;2023-04-26T12:04:33;11.00;99.90
14378;DHT22;7272;53.668;9.578;2023-04-26T12:07:35;10.50;99.90
14378;DHT22;7272;53.668;9.578;2023-04-26T12:10:37;10.10;99.90
14378;DHT22;7272;53.668;9.578;2023-04-26T12:13:38;10.10;99.90
14378;DHT22;7272;53.668;9.578;2023-04-26T12:16:41;10.30;99.90
14378;DHT22;7272;53.668;9.578;2023-04-26T12:19:48;10.60;99.90
14378;DHT22;7272;53.668;9.578;2023-04-26T12:22:57;10.90;99.90
14378;DHT22;7272;53.668;9.578;2023-04-26T12:25:58;11.00;99.90
14378;DHT22;7272;53.668;9.578;2023-04-26T12:29:03;11.50;99.90
14378;DHT22;7272;53.668;9.578;2023-04-26T12:32:04;12.00;99.90
14378;DHT22;7272;53.668;9.578;2023-04-26T12:35:07;12.20;99.90
14378;DHT22;7272;53.668;9.578;2023-04-26T12:38:08;11.90;99.90
14378;DHT22;7272;53.668;9.578;2023-04-26T12:41:10;11.60;99.90
14378;DHT22;7272;53.668;9.578;2023-04-26T12:44:11;11.80;99.90
14378;DHT22;7272;53.668;9.578;2023-04-26T12:47:13;12.20;99.90
14378;DHT22;7272;53.668;9.578;2023-04-26T12:50:16;12.40;99.90
14378;DHT22;7272;53.668;9.578;2023-04-26T12:53:17;11.50;99.90
14378;DHT22;7272;53.668;9.578;2023-04-26T12:56:18;11.40;99.90
14378;DHT22;7272;53.668;9.578;2023-04-26T12:59:20;12.00;99.90
14378;DHT22;7272;53.668;9.578;2023-04-26T13:02:21;12.40;99.90
14378;DHT22;7272;53.668;9.578;2023-04-26T13:05:23;12.40;99.90
14378;DHT22;7272;53.668;9.578;2023-04-26T13:08:25;12.20;99.90
14378;DHT22;7272;53.668;9.578;2023-04-26T13:11:26;12.10;99.90
14378;DHT22;7272;53.668;9.578;2023-04-26T13:14:27;12.20;99.90
14378;DHT22;7272;53.668;9.578;2023-04-26T13:17:29;11.80;99.90
14378;DHT22;7272;53.668;9.578;2023-04-26T13:20:31;11.30;99.90
14378;DHT22;7272;53.668;9.578;2023-04-26T13:23:33;11.00;99.90
14378;DHT22;7272;53.668;9.578;2023-04-26T13:26:34;11.20;99.90
14378;DHT22;7272;53.668;9.578;2023-04-26T13:29:35;11.50;99.90
14378;DHT22;7272;53.668;9.578;2023-04-26T13:32:36;11.90;99.90
14378;DHT22;7272;53.668;9.578;2023-04-26T13:35:38;12.10;99.90
14378;DHT22;7272;53.668;9.578;2023-04-26T13:38:39;12.30;99.90
14378;DHT22;7272;53.668;9.578;2023-04-26T13:41:41;12.30;99.90
14378;DHT22;7272;53.668;9.578;2023-04-26T13:44:42;11.80;99.90
14378;DHT22;7272;53.668;9.578;2023-04-26T13:47:43;12.00;99.90
14378;DHT22;7272;53.668;9.578;2023-04-26T13:50:45;12.20;99.90
14378;DHT22;7272;53.668;9.578;2023-04-26T13:53:47;12.20;99.90
14378;DHT22;7272;53.668;9.578;2023-04-26T13:56:48;12.20;99.90
14378;DHT22;7272;53.668;9.578;2023-04-26T13:59:49;12.30;99.90
14378;DHT22;7272;53.668;9.578;2023-04-26T14:02:50;12.10;99.90
14378;DHT22;7272;53.668;9.578;2023-04-26T14:05:53;11.70;99.90
14378;DHT22;7272;53.668;9.578;2023-04-26T14:08:54;11.20;99.90
14378;DHT22;7272;53.668;9.578;2023-04-26T14:11:55;11.10;99.90
14378;DHT22;7272;53.668;9.578;2023-04-26T14:14:57;11.50;99.90
14378;DHT22;7272;53.668;9.578;2023-04-26T14:17:58;11.80;99.90
14378;DHT22;7272;53.668;9.578;2023-04-26T14:21:00;11.90;99.90
14378;DHT22;7272;53.668;9.578;2023-04-26T14:24:01;12.10;99.90
14378;DHT22;7272;53.668;9.578;2023-04-26T14:27:02;12.00;99.90
14378;DHT22;7272;53.668;9.578;2023-04-26T14:30:05;11.70;99.90
14378;DHT22;7272;53.668;9.578;2023-04-26T14:33:06;11.20;99.90
14378;DHT22;7272;53.668;9.578;2023-04-26T14:36:08;10.60;99.90
14378;DHT22;7272;53.668;9.578;2023-04-26T14:39:09;10.60;99.90
14378;DHT22;7272;53.668;9.578;2023-04-26T14:42:10;10.80;99.90
14378;DHT22;7272;53.668;9.578;2023-04-26T14:45:12;10.90;99.90
14378;DHT22;7272;53.668;9.578;2023-04-26T14:48:14;11.10;99.90
14378;DHT22;7272;53.668;9.578;2023-04-26T14:51:16;10.90;99.90
14378;DHT22;7272;53.668;9.578;2023-04-26T14:54:17;10.60;99.90
14378;DHT22;7272;53.668;9.578;2023-04-26T14:57:18;10.60;99.90
14378;DHT22;7272;53.668;9.578;2023-04-26T15:00:20;10.70;99.90
14378;DHT22;7272;53.668;9.578;2023-04-26T15:03:22;10.90;99.90
14378;DHT22;7272;53.668;9.578;2023-04-26T15:06:24;11.10;99.90
14378;DHT22;7272;53.668;9.578;2023-04-26T15:09:26;11.00;99.90
14378;DHT22;7272;53.668;9.578;2023-04-26T15:12:27;11.00;99.90
14378;DHT22;7272;53.668;9.578;2023-04-26T15:15:29;11.10;99.90
14378;DHT22;7272;53.668;9.578;2023-04-26T15:18:30;10.80;99.90
14378;DHT22;7272;53.668;9.578;2023-04-26T15:21:32;10.80;99.90
14378;DHT22;7272;53.668;9.578;2023-04-26T15:24:34;10.80;99.90
14378;DHT22;7272;53.668;9.578;2023-04-26T15:27:36;10.70;99.90
14378;DHT22;7272;53.668;9.578;2023-04-26T15:30:37;10.60;99.90
14378;DHT22;7272;53.668;9.578;2023-04-26T15:33:39;10.40;99.90
14378;DHT22;7272;53.668;9.578;2023-04-26T15:36:40;10.50;99.90
14378;DHT22;7272;53.668;9.578;2023-04-26T15:39:42;10.70;99.90
14378;DHT22;7272;53.668;9.578;2023-04-26T15:42:43;10.60;99.90
14378;DHT22;7272;53.668;9.578;2023-04-26T15:45:44;10.50;99.90
14378;DHT22;7272;53.668;9.578;2023-04-26T15:48:46;10.40;99.90
14378;DHT22;7272;53.668;9.578;2023-04-26T15:51:48;10.20;99.90
14378;DHT22;7272;53.668;9.578;2023-04-26T15:54:49;10.00;99.90
14378;DHT22;7272;53.668;9.578;2023-04-26T15:57:50;10.00;99.90
14378;DHT22;7272;53.668;9.578;2023-04-26T16:00:51;10.00;99.90
14378;DHT22;7272;53.668;9.578;2023-04-26T16:03:53;9.90;99.90
14378;DHT22;7272;53.668;9.578;2023-04-26T16:06:54;9.80;99.90
14378;DHT22;7272;53.668;9.578;2023-04-26T16:09:56;9.90;99.90
14378;DHT22;7272;53.668;9.578;2023-04-26T16:12:57;9.90;99.90
14378;DHT22;7272;53.668;9.578;2023-04-26T16:15:58;9.90;99.90
14378;DHT22;7272;53.668;9.578;2023-04-26T16:18:59;9.90;99.90
14378;DHT22;7272;53.668;9.578;2023-04-26T16:22:01;10.00;99.90
14378;DHT22;7272;53.668;9.578;2023-04-26T16:25:03;10.00;99.90
14378;DHT22;7272;53.668;9.578;2023-04-26T16:28:06;10.00;99.90
14378;DHT22;7272;53.668;9.578;2023-04-26T16:31:08;10.10;99.90
14378;DHT22;7272;53.668;9.578;2023-04-26T16:34:10;10.00;99.90
14378;DHT22;7272;53.668;9.578;2023-04-26T16:37:12;9.90;99.90
14378;DHT22;7272;53.668;9.578;2023-04-26T16:40:14;9.80;99.90
14378;DHT22;7272;53.668;9.578;2023-04-26T16:43:15;9.80;99.90
14378;DHT22;7272;53.668;9.578;2023-04-26T16:46:16;9.80;99.90
14378;DHT22;7272;53.668;9.578;2023-04-26T16:49:17;9.90;99.90
14378;DHT22;7272;53.668;9.578;2023-04-26T16:52:19;9.80;99.90
14378;DHT22;7272;53.668;9.578;2023-04-26T16:55:20;9.60;99.90
14378;DHT22;7272;53.668;9.578;2023-04-26T16:58:22;9.50;99.90
14378;DHT22;7272;53.668;9.578;2023-04-26T17:01:23;9.40;99.90
14378;DHT22;7272;53.668;9.578;2023-04-26T17:04:25;9.40;99.90
14378;DHT22;7272;53.668;9.578;2023-04-26T17:07:27;9.30;99.90
14378;DHT22;7272;53.668;9.578;2023-04-26T17:10:28;9.20;99.90
14378;DHT22;7272;53.668;9.578;2023-04-26T17:13:31;9.10;99.90
14378;DHT22;7272;53.668;9.578;2023-04-26T17:16:33;9.10;99.90
14378;DHT22;7272;53.668;9.578;2023-04-26T17:19:35;9.10;99.90
14378;DHT22;7272;53.668;9.578;2023-04-26T17:22:37;9.00;99.90
14378;DHT22;7272;53.668;9.578;2023-04-26T17:25:39;8.90;99.90
14378;DHT22;7272;53.668;9.578;2023-04-26T17:28:40;8.90;99.90
14378;DHT22;7272;53.668;9.578;2023-04-26T17:31:41;8.80;99.90
14378;DHT22;7272;53.668;9.578;2023-04-26T17:34:43;8.80;99.90
14378;DHT22;7272;53.668;9.578;2023-04-26T17:37:47;8.70;99.90
14378;DHT22;7272;53.668;9.578;2023-04-26T17:40:51;8.70;99.90
14378;DHT22;7272;53.668;9.578;2023-04-26T17:43:52;8.60;99.90
14378;DHT22;7272;53.668;9.578;2023-04-26T17:46:54;8.60;99.90
14378;DHT22;7272;53.668;9.578;2023-04-26T17:49:55;8.50;99.90
14378;DHT22;7272;53.668;9.578;2023-04-26T17:52:57;8.30;99.90
14378;DHT22;7272;53.668;9.578;2023-04-26T17:55:58;8.20;99.90
14378;DHT22;7272;53.668;9.578;2023-04-26T17:58:59;8.20;99.90
14378;DHT22;7272;53.668;9.578;2023-04-26T18:02:00;8.20;99.90
14378;DHT22;7272;53.668;9.578;2023-04-26T18:05:02;8.20;99.90
14378;DHT22;7272;53.668;9.578;2023-04-26T18:08:04;8.20;99.90
14378;DHT22;7272;53.668;9.578;2023-04-26T18:11:06;8.10;99.90
14378;DHT22;7272;53.668;9.578;2023-04-26T18:14:07;8.10;99.90
14378;DHT22;7272;53.668;9.578;2023-04-26T18:17:09;8.10;99.90
14378;DHT22;7272;53.668;9.578;2023-04-26T18:20:11;8.00;99.90
14378;DHT22;7272;53.668;9.578;2023-04-26T18:23:13;8.00;99.90
14378;DHT22;7272;53.668;9.578;2023-04-26T18:26:14;8.00;99.90
14378;DHT22;7272;53.668;9.578;2023-04-26T18:29:15;8.00;99.90
14378;DHT22;7272;53.668;9.578;2023-04-26T18:32:17;8.10;99.90
14378;DHT22;7272;53.668;9.578;2023-04-26T18:35:18;8.00;99.90
14378;DHT22;7272;53.668;9.578;2023-04-26T18:38:20;7.90;99.90
14378;DHT22;7272;53.668;9.578;2023-04-26T18:41:21;7.70;99.90
14378;DHT22;7272;53.668;9.578;2023-04-26T18:44:23;7.60;99.90
14378;DHT22;7272;53.668;9.578;2023-04-26T18:47:24;7.60;99.90
14378;DHT22;7272;53.668;9.578;2023-04-26T18:50:26;7.60;99.90
14378;DHT22;7272;53.668;9.578;2023-04-26T18:53:28;7.60;99.90
14378;DHT22;7272;53.668;9.578;2023-04-26T18:56:29;7.60;99.90
14378;DHT22;7272;53.668;9.578;2023-04-26T18:59:31;7.60;99.90
14378;DHT22;7272;53.668;9.578;2023-04-26T19:02:32;7.50;99.90
14378;DHT22;7272;53.668;9.578;2023-04-26T19:05:33;7.50;99.90
14378;DHT22;7272;53.668;9.578;2023-04-26T19:08:35;7.40;99.90
14378;DHT22;7272;53.668;9.578;2023-04-26T19:11:36;7.40;99.90
14378;DHT22;7272;53.668;9.578;2023-04-26T19:14:38;7.40;99.90
14378;DHT22;7272;53.668;9.578;2023-04-26T19:17:39;7.30;99.90
14378;DHT22;7272;53.668;9.578;2023-04-26T19:20:41;7.30;99.90
14378;DHT22;7272;53.668;9.578;2023-04-26T19:23:43;7.30;99.90
14378;DHT22;7272;53.668;9.578;2023-04-26T19:26:44;7.30;99.90
14378;DHT22;7272;53.668;9.578;2023-04-26T19:29:45;7.30;99.90
14378;DHT22;7272;53.668;9.578;2023-04-26T19:32:46;7.30;99.90
14378;DHT22;7272;53.668;9.578;2023-04-26T19:35:47;7.20;99.90
14378;DHT22;7272;53.668;9.578;2023-04-26T19:38:49;7.20;99.90
14378;DHT22;7272;53.668;9.578;2023-04-26T19:41:51;7.20;99.90
14378;DHT22;7272;53.668;9.578;2023-04-26T19:44:52;7.10;99.90